Coquille, OR (97423)

1:51 AM PDT on September 17, 2014 (GMT -0700)
Coquille, E. 7th Street, | Change Station
CLOSE
Current Station
Personal Weather Station
Location: Coquille, OR
Elevation: 121 ft
Nearby Weather Stations

Elev 121 ft 43.18 °N, 124.18 °W | Updated 11 minutes ago

Overcast
Overcast
55.9 °F
Feels Like 55.9 °F
N
0.0
Wind Variable Wind from ESE

Today
High -- | Low -- °F
--% Chance of Precip.
Yesterday
High -- | Low -- °F
Precip. -- in
6:58 AM 7:23 PM
Last Quarter, 38% visible
Pressure 29.81 in
Visibility 10.0 miles
Clouds Clear
Dew Point 49 °F
Humidity 78%
Rainfall 0.00 in
Snow Depth Not available.
UV 0 out of 12
Pollen 1.70 out of 12
Air Quality Not available.
Flu Activity Not available.
METAR KOTH 170835Z 00000KT 10SM CLR 14/14 A2981 RMK AO1

More Conditions Fewer Conditions

Pressure 29.81 in
Visibility 10.0 miles
Clouds Clear
Dew Point 49 °F
Humidity 78%
Rainfall 0.00 in
Snow Depth Not available.
UV 0 out of 12
Pollen 1.70 out of 12
Air Quality Not available.
Flu Activity Not available.
METAR KOTH 170835Z 00000KT 10SM CLR 14/14 A2981 RMK AO1

More Conditions Fewer Conditions

10-Day Weather Forecast

Almanac

Astronomy

Sep. 17, 2014 Rise Set
Actual Time 6:58 AM PDT 7:23 PM PDT
Civil Twilight 6:30 AM PDT 7:51 PM PDT
Nautical Twilight 5:56 AM PDT 8:25 PM PDT
Astronomical Twilight 5:21 AM PDT 8:59 PM PDT
Moon 12:56 AM PDT 3:43 PM PDT
Length of Visible Light 13h 21m
Length of Day
12h 24m
Tomorrow will be 2m 55s shorter.
Last Quarter, 38% of the Moon is Illuminated
Today
Last Quarter
Sep 24
New
Oct 1
First Quarter
Oct 8
Full
Oct 15
Last Quarter

Today's Extremes

State Highs State Lows

Community

WunderPhotos

Upload Photos

1,753,990 photos uploaded!

Nearby

Snow Depth

Station Depth Elevation
Cascade Summit 0 in 4880 ft
Roaring River 0 in 4900 ft
Fish Creek 0 in 7900 ft
Salt Creek Falls 0 in 4000 ft
Cold Springs Camp 0 in 6100 ft

Earthquake Activity

City Distance Mag. Time & Date
No recent earthquake activity has been reported nearby.
Minimum magnitude displayed is 2.5.

Coastal Water Temperatures

Place Temperature
Port Orford, OR 55.9 °F
Charleston, OR 53.1 °F
South Beach, OR 55.9 °F

Nearby Weather Stations